createdAt,value
2017-05-19T00:02:03.670Z,6.56
2017-05-19T00:04:33.761Z,7.36
2017-05-19T00:07:04.524Z,6.58
2017-05-19T00:09:34.515Z,7.44
2017-05-19T00:12:04.528Z,7.48
2017-05-19T00:14:34.521Z,8.50
2017-05-19T00:17:05.285Z,8.68
2017-05-19T00:19:35.301Z,8.62
2017-05-19T00:22:05.308Z,8.36
2017-05-19T00:24:35.283Z,8.06
2017-05-19T00:27:06.027Z,8.64
2017-05-19T00:29:35.993Z,8.56
2017-05-19T00:32:06.008Z,8.06
2017-05-19T00:34:35.982Z,8.32
2017-05-19T00:37:06.725Z,8.96
2017-05-19T00:39:36.708Z,9.14
2017-05-19T00:42:06.733Z,8.28
2017-05-19T00:44:36.711Z,8.04
2017-05-19T00:47:06.717Z,7.96
2017-05-19T00:49:36.738Z,8.02
2017-05-19T00:52:06.739Z,7.76
2017-05-19T00:54:36.737Z,8.22
2017-05-19T00:57:06.742Z,6.80
2017-05-19T00:59:37.455Z,7.00
2017-05-19T01:02:07.449Z,7.50
2017-05-19T01:04:37.437Z,7.02
2017-05-19T01:07:07.437Z,7.24
2017-05-19T01:09:37.401Z,7.42
2017-05-19T01:12:07.423Z,7.52
2017-05-19T01:14:37.389Z,6.28
2017-05-19T01:17:07.385Z,6.20
2017-05-19T01:19:37.366Z,7.60
2017-05-19T01:22:07.539Z,8.36
2017-05-19T01:24:38.232Z,7.70
2017-05-19T01:27:08.212Z,8.40
2017-05-19T01:29:38.181Z,8.50
2017-05-19T01:32:08.960Z,8.00
2017-05-19T01:34:38.926Z,8.50
2017-05-19T01:37:09.684Z,8.38
2017-05-19T01:39:39.308Z,8.12
2017-05-19T01:42:09.549Z,8.38
2017-05-19T01:44:39.208Z,9.26
2017-05-19T01:47:08.854Z,8.66
2017-05-19T01:49:38.829Z,8.90
2017-05-19T01:52:08.811Z,7.78
2017-05-19T01:54:38.793Z,7.02
2017-05-19T01:57:08.801Z,7.08
2017-05-19T01:59:38.771Z,7.12
2017-05-19T02:02:09.486Z,7.60
2017-05-19T02:04:39.491Z,7.22
2017-05-19T02:07:09.455Z,6.32
2017-05-19T02:09:39.479Z,6.80
2017-05-19T02:12:09.445Z,6.18
2017-05-19T02:14:39.452Z,5.88
2017-05-19T02:17:10.115Z,6.56
2017-05-19T02:19:40.902Z,6.60
2017-05-19T02:22:10.869Z,6.22
2017-05-19T02:24:41.613Z,5.28
2017-05-19T02:27:11.581Z,5.90
2017-05-19T02:29:41.584Z,5.86
2017-05-19T02:32:11.558Z,6.68
2017-05-19T02:34:41.582Z,6.40
2017-05-19T02:37:11.550Z,6.82
2017-05-19T02:39:41.800Z,5.92
2017-05-19T02:42:12.525Z,6.92
2017-05-19T02:44:43.291Z,7.28
2017-05-19T02:47:13.605Z,7.34
2017-05-19T02:49:43.611Z,6.52
2017-05-19T02:52:13.593Z,5.90
2017-05-19T02:54:43.592Z,6.88
2017-05-19T02:57:13.589Z,6.40
2017-05-19T02:59:43.677Z,6.62
2017-05-19T03:02:14.385Z,6.46
2017-05-19T03:04:44.409Z,6.12
2017-05-19T03:07:14.405Z,6.56
2017-05-19T03:09:44.393Z,6.36
2017-05-19T03:12:14.357Z,6.04
2017-05-19T03:14:45.125Z,6.62
2017-05-19T03:17:15.164Z,6.32
2017-05-19T03:19:45.181Z,6.30
2017-05-19T03:22:15.864Z,6.36
2017-05-19T03:24:46.619Z,7.24
2017-05-19T03:27:16.644Z,7.06
2017-05-19T03:29:46.832Z,6.10
2017-05-19T03:32:17.536Z,6.42
2017-05-19T03:34:47.549Z,6.28
2017-05-19T03:37:17.544Z,6.68
2017-05-19T03:39:47.560Z,5.86
2017-05-19T03:42:17.536Z,6.20
2017-05-19T03:44:47.538Z,6.26
2017-05-19T03:47:18.276Z,6.00
2017-05-19T03:49:49.045Z,6.14
2017-05-19T03:52:19.028Z,6.10
2017-05-19T03:54:49.756Z,6.16
2017-05-19T03:57:20.464Z,5.70
2017-05-19T03:59:50.497Z,7.42
2017-05-19T04:02:21.220Z,7.06
2017-05-19T04:04:51.244Z,7.90
2017-05-19T04:07:21.201Z,7.30
2017-05-19T04:09:51.212Z,6.18
2017-05-19T04:12:21.180Z,7.32
2017-05-19T04:14:51.164Z,6.32
2017-05-19T04:17:21.123Z,6.94
2017-05-19T04:19:51.860Z,7.52
2017-05-19T04:22:22.573Z,7.92
2017-05-19T04:24:52.583Z,7.84
2017-05-19T04:27:22.548Z,7.94
2017-05-19T04:29:52.536Z,7.82
2017-05-19T04:32:23.185Z,7.66
2017-05-19T04:34:53.912Z,8.30
2017-05-19T04:37:23.883Z,8.16
2017-05-19T04:39:53.892Z,6.92
2017-05-19T04:42:24.548Z,6.14
2017-05-19T04:44:54.569Z,7.00
2017-05-19T04:47:24.534Z,6.38
2017-05-19T04:49:54.533Z,6.90
2017-05-19T04:52:24.503Z,6.02
2017-05-19T04:54:54.507Z,6.62
2017-05-19T04:57:24.466Z,7.18
2017-05-19T04:59:55.198Z,6.38
2017-05-19T05:02:25.914Z,5.90
2017-05-19T05:04:55.923Z,6.20
2017-05-19T05:07:25.897Z,7.34
2017-05-19T05:09:55.922Z,7.08
2017-05-19T05:12:25.884Z,6.50
2017-05-19T05:14:55.893Z,7.56
2017-05-19T05:17:26.719Z,6.82
2017-05-19T05:19:56.711Z,8.04
2017-05-19T05:22:26.694Z,5.96
2017-05-19T05:24:56.680Z,5.74
2017-05-19T05:27:27.391Z,4.72
2017-05-19T05:29:57.394Z,4.12
2017-05-19T05:32:27.361Z,4.14
2017-05-19T05:34:57.373Z,4.78
2017-05-19T05:37:27.344Z,4.28
2017-05-19T05:39:57.338Z,4.46
2017-05-19T05:42:27.318Z,4.88
2017-05-19T05:45:39.905Z,6.42
2017-05-19T05:48:09.095Z,7.64
2017-05-19T05:50:37.512Z,7.52
2017-05-19T05:53:06.792Z,5.22
2017-05-19T05:55:35.972Z,4.20
2017-05-19T05:58:05.170Z,3.28
2017-05-19T06:00:34.411Z,3.84
2017-05-19T06:03:03.607Z,3.36
2017-05-19T06:05:32.799Z,4.10
2017-05-19T06:08:02.006Z,4.46
2017-05-19T06:10:31.213Z,5.36
2017-05-19T06:13:00.400Z,6.28
2017-05-19T06:15:29.601Z,6.52
2017-05-19T06:17:58.793Z,6.70
2017-05-19T06:20:27.977Z,7.40
2017-05-19T06:22:57.269Z,6.94
2017-05-19T06:25:26.458Z,8.10
2017-05-19T06:27:55.698Z,9.40
2017-05-19T06:30:24.902Z,11.46
2017-05-19T06:32:54.103Z,10.60
2017-05-19T06:35:24.005Z,11.72
2017-05-19T06:37:53.206Z,10.80
2017-05-19T06:40:22.404Z,10.52
2017-05-19T06:42:51.649Z,9.66
2017-05-19T06:45:20.844Z,10.06
2017-05-19T06:47:50.033Z,10.84
2017-05-19T06:50:19.239Z,9.76
2017-05-19T06:52:48.445Z,10.04
2017-05-19T06:55:17.638Z,10.02
2017-05-19T06:57:46.860Z,10.18
2017-05-19T07:00:16.091Z,8.78
2017-05-19T07:02:45.280Z,10.02
2017-05-19T07:05:14.513Z,9.90
2017-05-19T07:07:43.707Z,11.22
2017-05-19T07:10:12.905Z,9.32
2017-05-19T07:12:42.114Z,10.02
2017-05-19T07:15:11.305Z,9.68
2017-05-19T07:17:40.496Z,10.80
2017-05-19T07:20:09.730Z,9.20
2017-05-19T07:22:38.925Z,7.14
2017-05-19T07:25:08.167Z,6.98
2017-05-19T07:27:37.410Z,5.74
2017-05-19T07:30:07.285Z,5.84
2017-05-19T07:32:36.510Z,5.98
2017-05-19T07:35:06.400Z,5.66
2017-05-19T07:37:35.609Z,5.78
2017-05-19T07:40:04.821Z,6.00
2017-05-19T07:42:34.033Z,6.44
2017-05-19T07:45:03.238Z,6.20
2017-05-19T07:47:32.434Z,4.38
2017-05-19T07:50:01.621Z,4.22
2017-05-19T07:52:30.826Z,4.68
2017-05-19T07:55:00.006Z,4.04
2017-05-19T07:57:29.200Z,5.12
2017-05-19T07:59:58.408Z,4.86
2017-05-19T08:02:27.592Z,4.36
2017-05-19T08:04:56.770Z,6.60
2017-05-19T08:07:26.001Z,6.46
2017-05-19T08:09:55.213Z,7.00
2017-05-19T08:12:24.401Z,6.02
2017-05-19T08:14:53.621Z,5.94
2017-05-19T08:17:23.489Z,6.20
2017-05-19T08:19:52.692Z,6.06
2017-05-19T08:22:21.900Z,5.90
2017-05-19T08:24:51.076Z,4.98
2017-05-19T08:27:20.282Z,4.64
2017-05-19T08:29:49.473Z,5.12
2017-05-19T08:32:18.650Z,6.18
2017-05-19T08:34:47.853Z,5.94
2017-05-19T08:37:17.041Z,6.96
2017-05-19T08:39:46.253Z,6.86
2017-05-19T08:42:15.440Z,6.20
2017-05-19T08:44:44.628Z,7.28
2017-05-19T08:47:13.844Z,7.18
2017-05-19T08:49:43.024Z,6.46
2017-05-19T08:52:12.224Z,5.40
2017-05-19T08:54:41.457Z,4.32
2017-05-19T08:57:10.645Z,3.80
2017-05-19T08:59:39.849Z,3.14
2017-05-19T09:02:09.069Z,3.58
2017-05-19T09:04:38.265Z,4.30
2017-05-19T09:07:07.440Z,3.90
2017-05-19T09:09:36.642Z,4.54
2017-05-19T09:12:05.848Z,4.38
2017-05-19T09:14:35.036Z,4.96
2017-05-19T09:17:04.256Z,5.38
2017-05-19T09:19:33.443Z,4.78
2017-05-19T09:22:02.631Z,4.80
2017-05-19T09:24:31.922Z,5.94
2017-05-19T09:27:01.106Z,7.62
2017-05-19T09:29:30.281Z,9.44
2017-05-19T09:31:59.480Z,5.10
2017-05-19T09:34:28.692Z,5.12
2017-05-19T09:36:57.876Z,3.38
2017-05-19T09:39:27.089Z,3.50
2017-05-19T09:41:56.284Z,2.42
2017-05-19T09:44:25.472Z,2.60
2017-05-19T09:46:54.692Z,3.40
2017-05-19T09:49:23.889Z,2.54
2017-05-19T09:51:53.085Z,2.36
2017-05-19T09:54:22.306Z,3.60
2017-05-19T09:56:51.599Z,2.42
2017-05-19T09:59:20.777Z,2.64
2017-05-19T10:01:49.993Z,3.00
2017-05-19T10:04:19.173Z,5.02
2017-05-19T10:06:48.360Z,3.38
2017-05-19T10:09:17.560Z,3.66
2017-05-19T10:11:46.752Z,4.08
2017-05-19T10:14:15.935Z,3.90
2017-05-19T10:16:45.173Z,4.64
2017-05-19T10:19:14.377Z,4.66
2017-05-19T10:21:43.569Z,4.84
2017-05-19T10:24:12.765Z,4.06
2017-05-19T10:26:41.945Z,5.22
2017-05-19T10:29:11.137Z,5.44
2017-05-19T10:31:40.347Z,6.04
2017-05-19T10:34:09.528Z,6.12
2017-05-19T10:36:38.720Z,7.62
2017-05-19T10:39:07.925Z,7.72
2017-05-19T10:41:37.118Z,6.70
2017-05-19T10:44:06.313Z,6.88
2017-05-19T10:46:35.521Z,6.44
2017-05-19T10:49:04.709Z,6.58
2017-05-19T10:51:33.897Z,5.74
2017-05-19T10:54:03.093Z,7.42
2017-05-19T10:56:32.273Z,9.62
2017-05-19T10:59:01.475Z,10.30
2017-05-19T11:01:30.681Z,9.10
2017-05-19T11:03:59.876Z,9.38
2017-05-19T11:06:29.060Z,9.88
2017-05-19T11:08:58.285Z,11.96
2017-05-19T11:11:27.475Z,10.50
2017-05-19T11:13:56.677Z,12.78
2017-05-19T11:16:25.888Z,13.78
2017-05-19T11:18:55.073Z,12.40
2017-05-19T11:21:24.265Z,19.48
2017-05-19T11:23:53.473Z,12.76
2017-05-19T11:26:22.652Z,9.30
2017-05-19T11:28:51.845Z,8.06
2017-05-19T11:31:21.096Z,5.12
2017-05-19T11:33:50.300Z,5.16
2017-05-19T11:36:19.479Z,4.46
2017-05-19T11:38:48.743Z,3.58
2017-05-19T11:41:17.933Z,4.00
2017-05-19T11:43:47.118Z,3.66
2017-05-19T11:46:16.324Z,11.00
2017-05-19T11:48:45.529Z,3.50
2017-05-19T11:51:14.713Z,3.40
2017-05-19T11:53:43.933Z,3.14
2017-05-19T11:56:13.122Z,4.60
2017-05-19T11:58:42.310Z,5.92
2017-05-19T12:01:11.699Z,6.30
2017-05-19T12:03:41.047Z,6.60
2017-05-19T12:06:10.249Z,6.22
2017-05-19T12:08:39.556Z,5.70
2017-05-19T12:11:08.751Z,5.64
2017-05-19T12:13:38.099Z,8.02
2017-05-19T12:16:07.308Z,8.86
2017-05-19T12:18:36.511Z,6.32
2017-05-19T12:21:05.724Z,7.20
2017-05-19T12:23:34.932Z,5.66
2017-05-19T12:26:04.133Z,6.76
2017-05-19T12:28:33.334Z,6.50
2017-05-19T12:31:02.554Z,6.16
2017-05-19T12:33:31.752Z,5.94
2017-05-19T12:36:00.950Z,6.48
2017-05-19T12:38:30.169Z,6.60
2017-05-19T12:40:59.353Z,7.40
2017-05-19T12:43:28.539Z,8.98
2017-05-19T12:45:57.777Z,18.80
2017-05-19T12:48:27.049Z,9.88
2017-05-19T12:50:56.386Z,11.82
2017-05-19T12:53:25.624Z,7.24
2017-05-19T12:55:54.824Z,8.82
2017-05-19T12:58:24.016Z,6.68
2017-05-19T13:00:53.292Z,8.42
2017-05-19T13:03:22.478Z,10.96
2017-05-19T13:05:51.678Z,8.42
2017-05-19T13:08:20.891Z,9.16
2017-05-19T13:10:50.105Z,9.64
2017-05-19T13:13:20.079Z,10.78
2017-05-19T13:15:49.373Z,10.14
2017-05-19T13:18:18.561Z,10.06
2017-05-19T13:20:47.785Z,10.68
2017-05-19T13:23:16.982Z,10.28
2017-05-19T13:25:46.268Z,10.32
2017-05-19T13:28:15.498Z,10.64
2017-05-19T13:30:44.723Z,11.20
2017-05-19T13:33:13.931Z,10.06
2017-05-19T13:35:43.148Z,10.10
2017-05-19T13:38:12.354Z,10.72
2017-05-19T13:40:41.554Z,11.08
2017-05-19T13:43:10.768Z,10.96
2017-05-19T13:45:40.063Z,11.86
2017-05-19T13:48:09.259Z,11.54
2017-05-19T13:50:38.486Z,11.26
2017-05-19T13:53:07.537Z,11.40
2017-05-19T13:55:36.738Z,12.50
2017-05-19T13:58:05.956Z,11.22
2017-05-19T14:00:35.178Z,11.30
2017-05-19T14:03:04.610Z,9.70
2017-05-19T14:05:33.891Z,10.84
2017-05-19T14:08:03.136Z,10.50
2017-05-19T14:10:32.317Z,14.30
2017-05-19T14:13:01.555Z,13.82
2017-05-19T14:15:30.747Z,12.64
2017-05-19T14:17:59.957Z,9.50
2017-05-19T14:20:29.188Z,10.44
2017-05-19T14:22:58.372Z,9.54
2017-05-19T14:25:27.568Z,10.88
2017-05-19T14:27:56.812Z,10.24
2017-05-19T14:30:26.061Z,9.80
2017-05-19T14:32:55.324Z,11.60
2017-05-19T14:35:24.691Z,9.92
2017-05-19T14:37:53.907Z,9.20
2017-05-19T14:40:23.204Z,12.64
2017-05-19T14:42:52.426Z,9.66
2017-05-19T14:45:21.670Z,12.84
2017-05-19T14:47:50.869Z,11.22
2017-05-19T14:50:20.103Z,9.80
2017-05-19T14:52:49.305Z,7.30
2017-05-19T14:55:18.506Z,7.68
2017-05-19T14:57:47.734Z,5.32
2017-05-19T15:00:17.451Z,4.92
2017-05-19T15:02:46.638Z,4.38
2017-05-19T15:05:16.490Z,3.84
2017-05-19T15:07:45.677Z,3.84
2017-05-19T15:10:14.879Z,3.74
2017-05-19T15:12:44.086Z,3.88
2017-05-19T15:15:13.733Z,3.48
2017-05-19T15:17:43.013Z,3.94
2017-05-19T15:20:12.220Z,4.34
2017-05-19T15:22:41.413Z,3.90
2017-05-19T15:25:10.600Z,4.30
2017-05-19T15:27:39.825Z,3.96
2017-05-19T15:30:09.008Z,4.46
2017-05-19T15:32:38.209Z,5.56
2017-05-19T15:35:08.124Z,5.68
2017-05-19T15:37:38.011Z,4.62
2017-05-19T15:40:07.208Z,4.48
2017-05-19T15:42:36.415Z,4.40
2017-05-19T15:45:05.593Z,5.74
2017-05-19T15:47:34.808Z,5.94
2017-05-19T15:50:04.016Z,7.50
2017-05-19T15:52:33.207Z,7.06
2017-05-19T15:55:02.437Z,7.88
2017-05-19T15:57:31.636Z,8.22
2017-05-19T16:00:00.830Z,9.54
2017-05-19T16:02:30.067Z,6.22
2017-05-19T16:04:59.245Z,6.06
2017-05-19T16:07:28.447Z,4.28
2017-05-19T16:09:57.657Z,4.22
2017-05-19T16:12:26.857Z,4.78
2017-05-19T16:14:56.041Z,5.06
2017-05-19T16:17:25.267Z,7.18
2017-05-19T16:19:54.456Z,4.42
2017-05-19T16:22:23.766Z,5.48
2017-05-19T16:24:52.984Z,23.08
2017-05-19T16:27:22.180Z,5.38
2017-05-19T16:29:51.387Z,4.96
2017-05-19T16:32:20.633Z,6.26
2017-05-19T16:34:49.833Z,4.00
2017-05-19T16:37:19.019Z,3.98
2017-05-19T16:39:48.235Z,4.58
2017-05-19T16:42:17.442Z,4.56
2017-05-19T16:44:46.637Z,7.22
2017-05-19T16:47:15.892Z,8.80
2017-05-19T16:49:45.092Z,5.40
2017-05-19T16:52:14.274Z,5.30
2017-05-19T16:54:43.540Z,8.32
2017-05-19T16:57:12.729Z,4.80
2017-05-19T16:59:41.924Z,4.36
2017-05-19T17:02:11.150Z,4.10
2017-05-19T17:04:40.326Z,3.86
2017-05-19T17:07:09.536Z,3.94
2017-05-19T17:09:38.889Z,3.74
2017-05-19T17:12:08.084Z,3.62
2017-05-19T17:14:37.294Z,3.82
2017-05-19T17:17:06.505Z,3.70
2017-05-19T17:19:35.787Z,4.18
2017-05-19T17:22:05.076Z,4.42
2017-05-19T17:24:34.318Z,3.60
2017-05-19T17:27:03.507Z,3.40
2017-05-19T17:29:32.708Z,4.36
2017-05-19T17:32:01.924Z,5.40
2017-05-19T17:34:31.141Z,3.12
2017-05-19T17:37:00.353Z,4.24
2017-05-19T17:39:30.249Z,3.20
2017-05-19T17:41:59.699Z,7.20
2017-05-19T17:44:28.931Z,5.90
2017-05-19T17:46:58.124Z,4.40
2017-05-19T17:49:27.347Z,6.42
2017-05-19T17:51:56.568Z,4.22
2017-05-19T17:54:25.782Z,3.88
2017-05-19T17:56:54.970Z,4.04
2017-05-19T17:59:24.275Z,4.04
2017-05-19T18:01:53.524Z,4.46
2017-05-19T18:04:22.719Z,5.74
2017-05-19T18:06:51.943Z,7.54
2017-05-19T18:09:21.135Z,25.92
2017-05-19T18:11:50.324Z,5.84
2017-05-19T18:14:19.541Z,5.82
2017-05-19T18:16:48.782Z,4.24
2017-05-19T18:19:17.995Z,14.52
2017-05-19T18:21:47.229Z,7.30
2017-05-19T18:24:16.429Z,12.24
2017-05-19T18:26:46.336Z,22.14
2017-05-19T18:29:15.535Z,7.04
2017-05-19T18:31:44.746Z,6.90
2017-05-19T18:34:13.945Z,6.54
2017-05-19T18:36:43.130Z,3.42
2017-05-19T18:39:12.325Z,4.96
2017-05-19T18:41:41.510Z,3.98
2017-05-19T18:44:10.708Z,3.34
2017-05-19T18:46:39.893Z,4.12
2017-05-19T18:49:09.120Z,3.42
2017-05-19T18:51:38.312Z,3.52
2017-05-19T18:54:07.511Z,2.76
2017-05-19T18:56:36.725Z,3.40
2017-05-19T18:59:05.926Z,3.66
2017-05-19T19:01:35.117Z,4.12
2017-05-19T19:04:04.345Z,4.10
2017-05-19T19:06:33.545Z,10.16
2017-05-19T19:09:02.738Z,6.24
2017-05-19T19:11:31.949Z,4.20
2017-05-19T19:14:01.182Z,2.96
2017-05-19T19:16:30.382Z,3.52
2017-05-19T19:18:59.593Z,2.42
2017-05-19T19:21:28.783Z,3.04
2017-05-19T19:23:57.983Z,3.22
2017-05-19T19:26:27.296Z,2.70
2017-05-19T19:28:56.489Z,2.34
2017-05-19T19:31:25.677Z,2.90
2017-05-19T19:33:54.902Z,2.86
2017-05-19T19:36:24.119Z,8.38
2017-05-19T19:38:53.325Z,7.28
2017-05-19T19:41:23.221Z,3.44
2017-05-19T19:43:52.423Z,2.92
2017-05-19T19:46:21.628Z,3.20
2017-05-19T19:48:50.835Z,2.56
2017-05-19T19:51:20.026Z,2.72
2017-05-19T19:53:49.221Z,2.58
2017-05-19T19:56:18.475Z,2.42
2017-05-19T19:58:47.666Z,3.30
2017-05-19T20:01:17.489Z,2.80
2017-05-19T20:03:46.697Z,2.62
2017-05-19T20:06:15.896Z,4.54
2017-05-19T20:08:45.119Z,6.00
2017-05-19T20:11:14.325Z,4.16
2017-05-19T20:13:43.514Z,3.16
2017-05-19T20:16:12.884Z,4.86
2017-05-19T20:18:42.154Z,4.70
2017-05-19T20:21:11.346Z,3.70
2017-05-19T20:23:40.560Z,6.40
2017-05-19T20:26:09.592Z,8.92
2017-05-19T20:28:38.782Z,6.70
2017-05-19T20:31:08.000Z,6.50
2017-05-19T20:33:37.201Z,4.80
2017-05-19T20:36:06.457Z,5.38
2017-05-19T20:38:35.317Z,4.62
2017-05-19T20:41:04.517Z,5.06
2017-05-19T20:43:33.705Z,4.94
2017-05-19T20:46:02.934Z,4.46
2017-05-19T20:48:32.118Z,4.84
2017-05-19T20:51:01.305Z,9.24
2017-05-19T20:53:30.525Z,10.48
2017-05-19T20:55:59.801Z,7.48
2017-05-19T20:58:28.993Z,7.62
2017-05-19T21:00:58.200Z,5.92
2017-05-19T21:03:27.399Z,4.80
2017-05-19T21:05:56.582Z,5.32
2017-05-19T21:08:25.812Z,5.24
2017-05-19T21:10:55.083Z,7.90
2017-05-19T21:13:24.286Z,9.44
2017-05-19T21:15:53.518Z,5.10
2017-05-19T21:18:22.706Z,5.22
2017-05-19T21:20:51.895Z,4.98
2017-05-19T21:23:21.150Z,4.00
2017-05-19T21:25:50.341Z,4.74
2017-05-19T21:28:19.544Z,5.32
2017-05-19T21:30:48.772Z,5.80
2017-05-19T21:33:17.979Z,9.50
2017-05-19T21:35:47.185Z,4.82
2017-05-19T21:38:16.406Z,4.20
2017-05-19T21:40:46.382Z,4.94
2017-05-19T21:43:15.730Z,11.88
2017-05-19T21:45:44.976Z,9.74
2017-05-19T21:48:14.177Z,6.68
2017-05-19T21:50:43.394Z,7.08
2017-05-19T21:53:12.680Z,7.56
2017-05-19T21:55:41.899Z,5.70
2017-05-19T21:58:11.102Z,4.50
2017-05-19T22:00:41.136Z,4.60
2017-05-19T22:03:10.328Z,3.42
2017-05-19T22:05:39.524Z,4.38
2017-05-19T22:08:08.754Z,4.48
2017-05-19T22:10:37.948Z,5.16
2017-05-19T22:13:07.136Z,8.20
2017-05-19T22:15:36.352Z,7.58
2017-05-19T22:18:05.546Z,4.52
2017-05-19T22:20:34.725Z,5.40
2017-05-19T22:23:03.952Z,3.84
2017-05-19T22:25:33.148Z,4.54
2017-05-19T22:28:02.333Z,4.74
2017-05-19T22:30:31.536Z,12.50
2017-05-19T22:33:00.720Z,4.44
2017-05-19T22:35:29.906Z,6.74
2017-05-19T22:37:59.117Z,6.04
2017-05-19T22:40:28.299Z,6.18
2017-05-19T22:42:57.493Z,6.68
2017-05-19T22:45:26.831Z,7.42
2017-05-19T22:47:56.022Z,10.62
2017-05-19T22:50:25.201Z,5.72
2017-05-19T22:52:54.401Z,5.24
2017-05-19T22:55:23.585Z,4.16
2017-05-19T22:57:52.784Z,4.08
2017-05-19T23:00:22.004Z,6.06
2017-05-19T23:02:51.202Z,5.76
2017-05-19T23:05:20.388Z,4.40
2017-05-19T23:07:49.614Z,5.70
2017-05-19T23:10:18.792Z,5.18
2017-05-19T23:12:47.979Z,5.96
2017-05-19T23:15:17.200Z,5.24
2017-05-19T23:17:46.386Z,5.38
2017-05-19T23:20:15.575Z,5.52
2017-05-19T23:22:44.773Z,6.30
2017-05-19T23:25:13.957Z,5.40
2017-05-19T23:27:43.137Z,4.80
2017-05-19T23:30:12.349Z,5.02
2017-05-19T23:32:41.519Z,5.06
2017-05-19T23:35:10.764Z,4.40
2017-05-19T23:37:39.979Z,4.80
2017-05-19T23:40:09.189Z,5.00
2017-05-19T23:42:38.378Z,4.20
2017-05-19T23:45:07.578Z,4.66
2017-05-19T23:47:36.761Z,4.52
2017-05-19T23:50:05.956Z,5.08
2017-05-19T23:52:35.874Z,5.74
2017-05-19T23:55:05.054Z,4.58
2017-05-19T23:57:34.240Z,4.68
